Time;durP1;ratioP1;P1;durP2;ratioP2;P2;SDS_P1;SDS_P2;PMS_P1;PMS_P2;Temp;Humidity;BMP_temperature;BMP_pressure;BME280_temperature;BME280_humidity;BME280_pressure;Samples;Min_cycle;Max_cycle;Signal;HPM_P1;HPM_P2
2022/08/24 00:00:55;;;;;;;17.13;15.43;;;18.50;99.90;;;;;;5014866;28;20530;-66
2022/08/24 00:03:21;;;;;;;17.75;16.00;;;18.50;99.90;;;;;;5014685;28;20046;-66
2022/08/24 00:05:47;;;;;;;17.77;15.98;;;18.50;99.90;;;;;;5014706;28;20049;-66
2022/08/24 00:08:13;;;;;;;17.77;15.90;;;18.50;99.90;;;;;;5014833;28;20498;-65
2022/08/24 00:10:40;;;;;;;15.15;13.55;;;18.50;99.90;;;;;;5014738;28;20041;-65
2022/08/24 00:13:05;;;;;;;18.75;16.75;;;18.40;99.90;;;;;;5014836;28;20050;-65
2022/08/24 00:15:31;;;;;;;19.35;16.88;;;18.30;99.90;;;;;;5014656;28;20096;-65
2022/08/24 00:17:58;;;;;;;17.52;15.10;;;18.30;99.90;;;;;;5014643;28;20129;-65
2022/08/24 00:20:23;;;;;;;18.92;16.92;;;18.40;99.90;;;;;;5014619;28;20041;-65
2022/08/24 00:22:49;;;;;;;18.02;16.13;;;18.30;99.90;;;;;;5013489;28;20390;-66
2022/08/24 00:25:16;;;;;;;20.27;18.13;;;18.30;99.90;;;;;;5014371;28;20034;-65
2022/08/24 00:27:43;;;;;;;16.92;15.15;;;18.40;99.90;;;;;;5013311;28;20458;-66
2022/08/24 00:30:14;;;;;;;16.25;14.55;;;18.40;99.90;;;;;;5014294;28;20058;-65
2022/08/24 00:32:44;;;;;;;16.40;14.80;;;18.40;99.90;;;;;;5013621;28;20057;-65
2022/08/24 00:35:11;;;;;;;16.38;14.68;;;18.30;99.90;;;;;;5014443;28;20125;-66
2022/08/24 00:37:38;;;;;;;19.88;17.83;;;18.20;99.90;;;;;;5014730;28;20397;-65
2022/08/24 00:40:10;;;;;;;20.15;18.15;;;18.20;99.90;;;;;;5014577;28;20045;-65
2022/08/24 00:42:37;;;;;;;20.05;17.92;;;18.20;99.90;;;;;;5014198;28;20056;-65
2022/08/24 00:45:05;;;;;;;18.13;16.25;;;18.20;99.90;;;;;;5014035;28;20046;-65
2022/08/24 00:47:41;;;;;;;22.27;18.80;;;18.30;99.90;;;;;;5014617;28;20404;-66
2022/08/24 00:50:13;;;;;;;18.77;16.88;;;18.30;99.90;;;;;;5014136;28;20053;-66
2022/08/24 00:52:49;;;;;;;18.08;15.90;;;18.30;99.90;;;;;;5014063;28;20051;-66
2022/08/24 00:55:26;;;;;;;18.00;16.10;;;18.20;99.90;;;;;;5014071;28;20048;-66
2022/08/24 00:58:00;;;;;;;17.17;15.43;;;18.20;99.90;;;;;;5013726;28;20076;-66
2022/08/24 01:00:31;;;;;;;20.10;17.98;;;18.20;99.90;;;;;;5013964;28;20116;-65
2022/08/24 01:03:03;;;;;;;16.50;14.85;;;18.10;99.90;;;;;;5014425;28;20124;-66
2022/08/24 01:05:31;;;;;;;16.33;14.70;;;18.10;99.90;;;;;;5013814;28;20081;-66
2022/08/24 01:07:58;;;;;;;18.00;15.82;;;18.00;99.90;;;;;;5013876;28;20064;-66
2022/08/24 01:10:29;;;;;;;22.35;19.00;;;17.90;99.90;;;;;;5013859;28;20502;-66
2022/08/24 01:12:59;;;;;;;20.38;18.25;;;17.90;99.90;;;;;;5014007;28;20122;-66
2022/08/24 01:15:25;;;;;;;20.88;18.67;;;18.00;99.90;;;;;;5014236;28;20042;-66
2022/08/24 01:20:35;;;;;;;19.88;17.50;;;18.10;99.90;;;;;;5014087;28;20065;-66
2022/08/24 01:23:12;;;;;;;18.30;16.40;;;18.20;99.90;;;;;;5013375;28;20136;-66
2022/08/24 01:25:41;;;;;;;20.80;18.67;;;18.20;99.90;;;;;;5013913;28;20382;-66
2022/08/24 01:28:16;;;;;;;21.45;18.77;;;18.30;99.90;;;;;;5013781;28;20120;-66
2022/08/24 01:30:43;;;;;;;21.38;19.08;;;18.40;99.90;;;;;;5014159;28;20056;-66
2022/08/24 01:33:10;;;;;;;18.63;16.67;;;18.40;99.90;;;;;;5014023;28;20150;-66
2022/08/24 01:35:38;;;;;;;18.25;16.42;;;18.40;99.90;;;;;;5013482;28;20448;-65
2022/08/24 01:38:09;;;;;;;19.70;17.60;;;18.40;99.90;;;;;;5012398;28;20046;-66
2022/08/24 01:40:38;;;;;;;20.65;16.70;;;18.30;99.90;;;;;;5014149;28;20050;-66
2022/08/24 01:43:06;;;;;;;21.25;18.98;;;18.20;99.90;;;;;;5013848;28;20054;-65
2022/08/24 01:45:32;;;;;;;23.20;20.50;;;18.20;99.90;;;;;;5013571;28;20042;-66
2022/08/24 01:47:58;;;;;;;20.17;18.17;;;18.20;99.90;;;;;;5013356;28;20057;-65
2022/08/24 01:50:25;;;;;;;21.50;18.55;;;18.10;99.90;;;;;;5013393;28;20046;-66
2022/08/24 01:52:51;;;;;;;19.08;17.08;;;18.00;99.90;;;;;;5013343;28;20062;-66
2022/08/24 01:55:17;;;;;;;20.58;18.48;;;17.80;99.90;;;;;;5013777;28;20045;-65
2022/08/24 01:57:43;;;;;;;19.20;17.20;;;17.80;99.90;;;;;;5013285;28;20041;-66
2022/08/24 02:00:15;;;;;;;18.67;16.70;;;17.70;99.90;;;;;;5013899;28;20052;-66
2022/08/24 02:02:42;;;;;;;18.55;16.55;;;17.70;99.90;;;;;;5013722;28;20046;-66
2022/08/24 02:05:10;;;;;;;18.30;16.08;;;17.60;99.90;;;;;;5013021;28;20092;-65
2022/08/24 02:07:36;;;;;;;17.83;15.93;;;17.60;99.90;;;;;;5013208;28;20228;-66
2022/08/24 02:10:07;;;;;;;19.58;16.75;;;17.60;99.90;;;;;;5012849;28;20053;-65
2022/08/24 02:12:36;;;;;;;20.08;17.98;;;17.50;99.90;;;;;;5013433;28;20121;-66
2022/08/24 02:15:06;;;;;;;20.27;17.67;;;17.50;99.90;;;;;;5013415;28;20046;-66
2022/08/24 02:17:33;;;;;;;21.10;18.88;;;17.50;99.90;;;;;;5013429;28;20049;-66
2022/08/24 02:20:00;;;;;;;16.40;14.80;;;17.50;99.90;;;;;;5012777;28;20502;-66
2022/08/24 02:22:26;;;;;;;16.10;14.32;;;17.50;99.90;;;;;;5014679;28;20443;-66
2022/08/24 02:24:52;;;;;;;14.70;13.30;;;17.50;99.90;;;;;;5016718;28;20112;-65
2022/08/24 02:27:18;;;;;;;19.90;17.77;;;17.50;99.90;;;;;;5017175;28;20451;-66
2022/08/24 02:29:43;;;;;;;20.83;18.15;;;17.40;99.90;;;;;;5016597;28;20081;-66
2022/08/24 02:32:11;;;;;;;21.65;18.98;;;17.40;99.90;;;;;;5016887;28;20462;-66
2022/08/24 02:34:37;;;;;;;20.17;17.98;;;17.40;99.90;;;;;;5016592;28;20081;-66
2022/08/24 02:37:03;;;;;;;20.27;17.60;;;17.30;99.90;;;;;;5015655;28;20550;-65
2022/08/24 02:39:28;;;;;;;20.98;18.50;;;17.30;99.90;;;;;;5016396;28;20133;-65
2022/08/24 02:41:54;;;;;;;18.80;16.90;;;17.30;99.90;;;;;;5016923;28;20056;-66
2022/08/24 02:44:20;;;;;;;18.35;16.48;;;17.20;99.90;;;;;;5016376;28;20077;-66
2022/08/24 02:46:46;;;;;;;19.85;16.92;;;17.10;99.90;;;;;;5016559;28;20054;-65
2022/08/24 02:49:11;;;;;;;18.10;15.18;;;16.90;99.90;;;;;;5015115;28;20394;-65
2022/08/24 02:51:40;;;;;;;18.10;16.13;;;16.80;99.90;;;;;;5016286;28;20046;-65
2022/08/24 02:54:06;;;;;;;17.90;15.50;;;16.70;99.90;;;;;;5016190;28;20038;-65
2022/08/24 02:56:31;;;;;;;20.90;16.75;;;16.60;99.90;;;;;;5016218;28;20045;-66
2022/08/24 02:58:58;;;;;;;19.17;15.95;;;16.60;99.90;;;;;;5016003;28;20049;-65
2022/08/24 03:01:26;;;;;;;18.63;16.73;;;16.60;99.90;;;;;;5016331;28;20518;-66
2022/08/24 03:03:52;;;;;;;16.58;14.77;;;16.70;99.90;;;;;;5016112;28;20045;-65
2022/08/24 03:06:18;;;;;;;19.15;17.13;;;16.60;99.90;;;;;;5016225;28;20088;-66
2022/08/24 03:08:44;;;;;;;19.05;16.45;;;16.70;99.90;;;;;;5015850;28;20038;-66
2022/08/24 03:11:10;;;;;;;20.48;16.83;;;16.70;99.90;;;;;;5015978;28;20046;-65
2022/08/24 03:13:36;;;;;;;20.05;17.50;;;16.70;99.90;;;;;;5015821;28;20471;-66
2022/08/24 03:16:03;;;;;;;19.73;17.63;;;16.70;99.90;;;;;;5014419;28;20049;-66
2022/08/24 03:18:29;;;;;;;16.35;14.65;;;16.70;99.90;;;;;;5015788;28;20048;-65
2022/08/24 03:20:57;;;;;;;15.63;14.02;;;16.70;99.90;;;;;;5015707;28;20081;-66
2022/08/24 03:23:23;;;;;;;16.65;14.40;;;16.70;99.90;;;;;;5016225;28;20096;-66
2022/08/24 03:25:53;;;;;;;15.05;13.50;;;16.60;99.90;;;;;;5015486;28;20129;-66
2022/08/24 03:28:20;;;;;;;15.15;13.55;;;16.50;99.90;;;;;;5015723;28;20071;-66
2022/08/24 03:30:47;;;;;;;14.55;12.93;;;16.50;99.90;;;;;;5015812;28;20129;-66
2022/08/24 03:33:13;;;;;;;17.27;14.90;;;16.40;99.90;;;;;;5014202;28;20050;-67
2022/08/24 03:35:39;;;;;;;17.00;14.95;;;16.50;99.90;;;;;;5015440;28;20069;-66
2022/08/24 03:38:06;;;;;;;15.45;13.65;;;16.50;99.90;;;;;;5014424;28;20046;-66
2022/08/24 03:40:33;;;;;;;18.08;15.43;;;16.50;99.90;;;;;;5015661;28;20115;-66
2022/08/24 03:43:00;;;;;;;17.58;15.70;;;16.50;99.90;;;;;;5014147;28;20042;-66
2022/08/24 03:45:26;;;;;;;16.15;14.45;;;16.50;99.90;;;;;;5014401;28;20090;-66
2022/08/24 03:47:52;;;;;;;17.67;15.70;;;16.50;99.90;;;;;;5015171;28;20041;-66
2022/08/24 03:50:19;;;;;;;18.10;14.40;;;16.40;99.90;;;;;;5015233;28;20050;-66
2022/08/24 03:52:45;;;;;;;17.27;15.52;;;16.30;99.90;;;;;;5015163;28;20089;-66
2022/08/24 03:55:12;;;;;;;18.67;16.42;;;16.30;99.90;;;;;;5015152;28;20057;-66
2022/08/24 03:57:38;;;;;;;15.32;13.73;;;16.30;99.90;;;;;;5015526;28;20434;-66
2022/08/24 04:00:08;;;;;;;17.38;15.48;;;16.20;99.90;;;;;;5014939;28;20050;-66
2022/08/24 04:02:34;;;;;;;18.10;15.85;;;16.20;99.90;;;;;;5015430;28;20050;-66
2022/08/24 04:05:00;;;;;;;14.82;13.23;;;16.20;99.90;;;;;;5015350;28;20049;-66
2022/08/24 04:07:26;;;;;;;18.48;16.02;;;16.20;99.90;;;;;;5015298;28;20096;-66
2022/08/24 04:09:52;;;;;;;20.05;15.63;;;16.20;99.90;;;;;;5015660;28;20394;-66
2022/08/24 04:12:17;;;;;;;19.30;16.98;;;16.20;99.90;;;;;;5014732;28;20128;-66
2022/08/24 04:14:43;;;;;;;21.08;17.55;;;16.40;99.90;;;;;;5014748;28;20052;-66
2022/08/24 04:17:10;;;;;;;18.23;16.08;;;16.50;99.90;;;;;;5014426;28;20049;-67
2022/08/24 04:19:36;;;;;;;20.42;17.33;;;16.60;99.90;;;;;;5014768;28;20099;-66
2022/08/24 04:22:02;;;;;;;19.40;16.45;;;16.60;99.90;;;;;;5014547;28;20053;-66
2022/08/24 04:24:28;;;;;;;22.42;17.75;;;16.70;99.90;;;;;;5014507;28;20060;-66
2022/08/24 04:26:54;;;;;;;21.48;17.95;;;16.60;99.90;;;;;;5014204;28;20133;-66
2022/08/24 04:29:20;;;;;;;24.90;21.00;;;16.60;99.90;;;;;;5014015;28;20054;-66
2022/08/24 04:31:46;;;;;;;20.83;17.98;;;16.60;99.90;;;;;;5013792;28;20148;-66
2022/08/24 04:34:14;;;;;;;22.40;19.40;;;16.60;99.90;;;;;;5014370;28;20446;-66
2022/08/24 04:36:42;;;;;;;19.90;17.25;;;16.50;99.90;;;;;;5014849;28;20038;-66
2022/08/24 04:39:08;;;;;;;22.85;19.38;;;16.50;99.90;;;;;;5014221;28;20045;-66
2022/08/24 04:41:33;;;;;;;22.55;19.40;;;16.50;99.90;;;;;;5015002;28;20439;-66
2022/08/24 04:43:59;;;;;;;24.02;19.35;;;16.40;99.90;;;;;;5013810;28;20085;-66
2022/08/24 04:46:26;;;;;;;23.73;19.15;;;16.40;99.90;;;;;;5014185;28;20133;-66
2022/08/24 04:48:51;;;;;;;20.00;17.77;;;16.50;99.90;;;;;;5013454;28;20089;-66
2022/08/24 04:51:19;;;;;;;16.85;15.00;;;16.50;99.90;;;;;;5013781;28;20525;-66
2022/08/24 04:53:45;;;;;;;21.95;17.70;;;16.50;99.90;;;;;;4996778;28;20050;-65
2022/08/24 04:56:14;;;;;;;21.52;18.05;;;16.50;99.90;;;;;;5014575;28;20100;-66
2022/08/24 04:58:40;;;;;;;22.98;19.48;;;16.60;99.90;;;;;;5013810;28;20041;-65
2022/08/24 05:01:08;;;;;;;21.35;18.90;;;16.60;99.90;;;;;;5013919;28;20076;-65
2022/08/24 05:03:34;;;;;;;21.25;18.55;;;16.70;99.90;;;;;;5014213;28;20053;-66
2022/08/24 05:06:00;;;;;;;24.63;20.38;;;16.70;99.90;;;;;;5013850;28;20129;-66
2022/08/24 05:08:26;;;;;;;22.73;19.27;;;16.70;99.90;;;;;;5014386;28;20124;-65
2022/08/24 05:10:52;;;;;;;23.77;19.80;;;16.70;99.90;;;;;;5014620;28;20046;-65
2022/08/24 05:13:17;;;;;;;27.80;22.48;;;16.70;99.90;;;;;;5013761;28;20056;-65
2022/08/24 05:15:46;;;;;;;28.95;22.30;;;16.70;99.90;;;;;;5012736;28;20045;-65
2022/08/24 05:18:13;;;;;;;24.50;19.75;;;16.70;99.90;;;;;;5014276;28;20054;-65
2022/08/24 05:20:41;;;;;;;22.92;20.15;;;16.70;99.90;;;;;;5013595;28;20046;-65
2022/08/24 05:23:07;;;;;;;22.83;19.20;;;16.70;99.90;;;;;;5013446;28;20066;-65
2022/08/24 05:25:32;;;;;;;22.33;19.27;;;16.70;99.90;;;;;;5014271;28;20096;-65
2022/08/24 05:27:59;;;;;;;25.55;20.15;;;16.70;99.90;;;;;;5013556;28;20113;-65
2022/08/24 05:30:25;;;;;;;23.27;19.67;;;16.70;99.90;;;;;;5013485;28;20121;-66
2022/08/24 05:32:50;;;;;;;25.13;20.85;;;16.80;99.90;;;;;;5012516;28;20502;-66
2022/08/24 05:35:16;;;;;;;23.38;19.45;;;16.90;99.90;;;;;;5014048;28;20432;-66
2022/08/24 05:37:42;;;;;;;23.30;19.75;;;16.90;99.90;;;;;;5013557;28;20042;-66
2022/08/24 05:40:12;;;;;;;23.33;17.98;;;17.00;99.90;;;;;;5013221;28;20552;-66
2022/08/24 05:42:39;;;;;;;23.05;19.85;;;17.20;99.90;;;;;;5013451;28;20046;-66
2022/08/24 05:45:06;;;;;;;23.25;19.85;;;17.30;99.90;;;;;;5013316;28;20042;-65
2022/08/24 05:47:33;;;;;;;25.65;20.38;;;17.40;99.90;;;;;;5013418;28;20050;-65
2022/08/24 05:49:59;;;;;;;24.63;20.90;;;17.50;99.90;;;;;;5013968;28;20058;-66
2022/08/24 05:52:26;;;;;;;25.10;21.13;;;17.70;99.90;;;;;;5013351;28;20084;-66
2022/08/24 05:54:54;;;;;;;25.45;20.45;;;17.80;99.90;;;;;;5013322;28;20084;-65
2022/08/24 05:57:20;;;;;;;23.63;20.00;;;18.00;99.90;;;;;;5016340;28;20133;-65
2022/08/24 05:59:46;;;;;;;23.50;19.40;;;18.10;99.90;;;;;;5017201;28;20053;-66
2022/08/24 06:02:12;;;;;;;24.85;20.83;;;18.20;99.90;;;;;;5017999;28;20045;-66
2022/08/24 06:04:38;;;;;;;27.90;21.70;;;18.40;99.90;;;;;;5017646;28;20422;-66
2022/08/24 06:07:05;;;;;;;25.85;21.83;;;18.50;99.90;;;;;;5017204;28;20046;-66
2022/08/24 06:09:31;;;;;;;25.67;21.50;;;18.70;99.90;;;;;;5015895;28;20121;-65
2022/08/24 06:11:58;;;;;;;24.58;20.95;;;18.90;99.90;;;;;;5017086;28;20468;-65
2022/08/24 06:14:23;;;;;;;24.65;21.40;;;19.00;99.90;;;;;;5016978;28;20125;-65
2022/08/24 06:16:51;;;;;;;25.60;22.00;;;19.20;99.90;;;;;;5016971;28;20128;-66
2022/08/24 06:19:18;;;;;;;27.38;23.40;;;19.30;99.90;;;;;;5017129;28;20124;-66
2022/08/24 06:21:45;;;;;;;28.92;22.70;;;19.40;99.90;;;;;;5016782;28;20085;-66
2022/08/24 06:24:12;;;;;;;25.00;21.65;;;19.50;99.90;;;;;;5016861;28;20057;-66
2022/08/24 06:29:22;;;;;;;27.27;24.08;;;19.80;99.90;;;;;;5016672;28;20050;-66
2022/08/24 06:31:48;;;;;;;28.52;24.95;;;19.90;99.90;;;;;;5016464;28;20104;-66
2022/08/24 06:34:17;;;;;;;28.75;23.25;;;20.00;99.90;;;;;;5016589;28;20053;-66
2022/08/24 06:36:43;;;;;;;29.17;23.98;;;20.10;99.90;;;;;;5016535;28;20042;-65
2022/08/24 06:39:09;;;;;;;28.73;24.67;;;20.20;99.90;;;;;;5016203;28;20501;-65
2022/08/24 06:41:38;;;;;;;30.38;25.23;;;20.20;99.90;;;;;;5016989;28;20478;-65
2022/08/24 06:44:06;;;;;;;30.13;25.35;;;20.40;99.90;;;;;;5016702;28;20152;-66
2022/08/24 06:46:32;;;;;;;30.45;25.52;;;20.40;99.90;;;;;;5016378;28;20049;-65
2022/08/24 06:48:58;;;;;;;31.02;25.98;;;20.60;99.90;;;;;;5016199;28;20125;-66
2022/08/24 06:51:24;;;;;;;29.75;26.35;;;20.60;99.90;;;;;;5016299;28;20128;-66
2022/08/24 06:53:50;;;;;;;30.33;25.70;;;20.70;99.90;;;;;;5016706;28;20050;-65
2022/08/24 06:56:17;;;;;;;29.17;24.92;;;20.80;99.90;;;;;;5016242;28;20046;-68
2022/08/24 06:58:43;;;;;;;27.70;24.70;;;20.90;99.90;;;;;;5015692;28;20054;-67
2022/08/24 07:01:14;;;;;;;28.48;25.17;;;21.00;99.90;;;;;;5016012;28;20100;-67
2022/08/24 07:03:40;;;;;;;27.70;24.23;;;21.10;99.90;;;;;;5016076;28;20050;-66
2022/08/24 07:06:06;;;;;;;26.65;23.58;;;21.20;99.90;;;;;;5016432;28;20390;-66
2022/08/24 07:08:33;;;;;;;25.48;22.73;;;21.30;99.90;;;;;;5015754;28;20089;-65
2022/08/24 07:10:58;;;;;;;26.60;23.15;;;21.40;99.90;;;;;;5016668;28;20053;-65
2022/08/24 07:13:24;;;;;;;24.50;21.83;;;21.50;99.90;;;;;;5015817;28;20080;-65
2022/08/24 07:15:51;;;;;;;23.52;20.90;;;21.60;99.90;;;;;;5015870;28;20054;-66
2022/08/24 07:18:18;;;;;;;21.15;18.88;;;21.70;99.90;;;;;;5016274;28;20445;-66
2022/08/24 07:20:45;;;;;;;23.48;21.05;;;21.80;99.90;;;;;;5016538;28;20371;-66
2022/08/24 07:23:13;;;;;;;25.13;22.45;;;22.00;99.90;;;;;;5016228;28;20085;-67
2022/08/24 07:25:40;;;;;;;23.25;19.90;;;22.10;99.90;;;;;;5015777;28;20072;-66
2022/08/24 07:28:06;;;;;;;21.70;19.30;;;22.20;99.90;;;;;;5015403;28;20046;-66
2022/08/24 07:30:32;;;;;;;20.75;18.60;;;22.30;99.90;;;;;;5015305;28;20046;-67
2022/08/24 07:32:58;;;;;;;21.20;18.23;;;22.40;99.90;;;;;;5016046;28;20049;-67
2022/08/24 07:35:26;;;;;;;19.58;17.55;;;22.50;99.90;;;;;;5015378;28;20038;-66
2022/08/24 07:37:54;;;;;;;22.10;19.75;;;22.60;99.90;;;;;;5015413;28;20089;-66
2022/08/24 07:40:20;;;;;;;20.63;18.55;;;22.70;99.90;;;;;;5015824;28;20537;-66
2022/08/24 07:42:51;;;;;;;19.90;17.30;;;22.80;99.90;;;;;;5015178;28;20046;-66
2022/08/24 07:45:17;;;;;;;18.45;16.63;;;22.90;99.90;;;;;;5014979;28;20050;-67
2022/08/24 07:47:44;;;;;;;20.70;18.50;;;23.00;99.90;;;;;;5014310;28;20069;-67
2022/08/24 07:50:10;;;;;;;18.27;16.40;;;23.10;99.90;;;;;;5015187;28;20069;-67
2022/08/24 07:52:36;;;;;;;19.02;15.25;;;23.20;99.90;;;;;;5015463;28;20052;-67
2022/08/24 07:55:04;;;;;;;13.93;12.43;;;23.30;99.90;;;;;;5015170;28;20457;-67
2022/08/24 07:57:30;;;;;;;16.90;13.43;;;23.40;99.90;;;;;;5016453;28;20056;-66
2022/08/24 07:59:58;;;;;;;16.83;15.13;;;23.40;99.90;;;;;;5013951;28;20046;-67
2022/08/24 08:02:25;;;;;;;13.98;12.15;;;23.50;99.90;;;;;;5014997;28;20046;-66
2022/08/24 08:04:50;;;;;;;13.48;12.05;;;23.60;99.90;;;;;;5014907;28;20096;-66
2022/08/24 08:07:16;;;;;;;7.78;6.88;;;23.60;99.90;;;;;;5014957;28;20049;-66
2022/08/24 08:09:42;;;;;;;10.02;8.75;;;23.70;99.90;;;;;;5013670;28;20471;-66
2022/08/24 08:12:08;;;;;;;12.02;10.57;;;23.80;99.90;;;;;;5014714;28;20056;-66
2022/08/24 08:14:34;;;;;;;10.60;9.50;;;23.90;99.90;;;;;;5014770;28;20079;-66
2022/08/24 08:17:00;;;;;;;9.95;8.27;;;24.00;99.90;;;;;;5014770;28;20376;-66
2022/08/24 08:19:26;;;;;;;10.57;8.85;;;24.10;99.90;;;;;;5012462;28;20046;-66
2022/08/24 08:24:38;;;;;;;8.90;7.97;;;24.20;99.90;;;;;;5014460;28;20103;-66
2022/08/24 08:27:05;;;;;;;9.52;8.52;;;24.30;99.90;;;;;;5014300;28;20464;-67
2022/08/24 08:29:34;;;;;;;7.93;6.97;;;24.40;99.90;;;;;;5014329;28;20099;-66
2022/08/24 08:32:00;;;;;;;10.23;8.90;;;24.50;99.90;;;;;;5013457;28;20093;-66
2022/08/24 08:34:27;;;;;;;9.10;8.05;;;24.60;99.90;;;;;;5014356;28;20046;-66
2022/08/24 08:36:53;;;;;;;9.98;8.52;;;24.70;99.90;;;;;;5014865;28;20061;-67
2022/08/24 08:39:21;;;;;;;11.48;9.40;;;24.70;99.90;;;;;;5014689;28;20045;-66
2022/08/24 08:42:13;;;;;;;10.45;9.35;;;24.80;99.90;;;;;;5014122;28;20144;-66
2022/08/24 08:44:58;;;;;;;8.55;7.05;;;24.80;99.90;;;;;;5014596;28;20050;-67
2022/08/24 08:47:42;;;;;;;10.55;9.52;;;24.90;99.90;;;;;;5014184;28;20049;-66
2022/08/24 08:50:38;;;;;;;10.57;8.57;;;24.90;99.90;;;;;;5014464;28;20053;-66
2022/08/24 08:53:32;;;;;;;8.40;7.50;;;25.00;99.90;;;;;;5013538;28;20088;-67
2022/08/24 08:56:11;;;;;;;8.85;7.25;;;25.10;99.90;;;;;;5014029;28;20128;-66
2022/08/24 08:59:15;;;;;;;6.07;5.40;;;25.10;99.90;;;;;;5014561;28;20058;-66
2022/08/24 09:02:22;;;;;;;9.43;6.88;;;25.20;99.90;;;;;;4973944;28;20057;-67
2022/08/24 09:05:09;;;;;;;7.03;6.32;;;25.40;99.90;;;;;;5013892;28;20140;-66
2022/08/24 09:07:40;;;;;;;8.55;7.18;;;25.40;99.90;;;;;;5013873;28;20124;-67
2022/08/24 09:10:47;;;;;;;7.13;6.03;;;25.40;99.90;;;;;;5014647;28;20095;-67
2022/08/24 09:13:16;;;;;;;8.80;7.90;;;25.50;99.90;;;;;;4918908;29;20051;-67
2022/08/24 09:16:01;;;;;;;6.68;6.03;;;25.50;99.90;;;;;;4995209;28;20057;-67
2022/08/24 09:19:04;;;;;;;7.80;7.00;;;25.60;99.90;;;;;;5013778;28;20053;-67
2022/08/24 09:21:59;;;;;;;6.88;6.13;;;25.70;99.90;;;;;;5013283;28;20041;-67
2022/08/24 09:24:58;;;;;;;6.28;5.25;;;25.80;99.90;;;;;;5013493;28;20093;-67
2022/08/24 09:27:24;;;;;;;6.72;5.43;;;25.90;99.90;;;;;;5012312;28;20104;-67
2022/08/24 09:29:58;;;;;;;6.18;5.57;;;26.00;99.90;;;;;;5013088;28;20131;-63
2022/08/24 09:33:05;;;;;;;7.45;6.30;;;26.10;99.90;;;;;;5011836;28;20053;-62
2022/08/24 09:35:49;;;;;;;7.97;4.93;;;26.10;99.90;;;;;;5013427;28;20042;-62
2022/08/24 09:38:39;;;;;;;6.22;5.55;;;26.10;99.90;;;;;;5013566;28;20045;-62
2022/08/24 09:41:35;;;;;;;5.55;4.40;;;26.30;99.90;;;;;;5013793;28;20144;-62
2022/08/24 09:44:27;;;;;;;6.07;4.50;;;26.50;99.90;;;;;;5013952;28;20072;-62
2022/08/24 09:47:21;;;;;;;4.68;4.18;;;26.60;99.90;;;;;;4975571;28;20085;-62
2022/08/24 09:49:55;;;;;;;6.68;4.50;;;26.70;99.90;;;;;;5013473;28;20112;-64
2022/08/24 09:52:58;;;;;;;5.43;4.60;;;26.70;99.90;;;;;;5013568;28;20470;-63
2022/08/24 09:55:30;;;;;;;5.32;3.80;;;26.70;99.90;;;;;;5013201;28;20034;-64
2022/08/24 09:58:33;;;;;;;5.70;4.60;;;26.70;99.90;;;;;;5013246;28;20041;-63
2022/08/24 10:01:33;;;;;;;4.93;3.70;;;26.70;99.90;;;;;;5013073;28;20050;-63
2022/08/24 10:04:17;;;;;;;4.72;4.18;;;26.70;99.90;;;;;;5008075;28;20366;-63
2022/08/24 10:07:09;;;;;;;6.22;5.00;;;26.80;99.90;;;;;;5013161;28;20048;-63
2022/08/24 10:09:59;;;;;;;6.40;5.30;;;26.80;99.90;;;;;;5013434;28;20053;-63
2022/08/24 10:12:49;;;;;;;5.97;3.97;;;26.60;99.90;;;;;;5013026;28;20050;-63
2022/08/24 10:15:29;;;;;;;5.35;4.60;;;26.60;99.90;;;;;;5012678;28;20089;-64
2022/08/24 10:18:03;;;;;;;4.95;4.47;;;26.70;99.90;;;;;;5013649;28;20046;-63
2022/08/24 10:20:51;;;;;;;5.73;5.23;;;26.80;99.90;;;;;;5013002;28;20050;-63
2022/08/24 10:23:31;;;;;;;6.20;4.30;;;26.80;99.90;;;;;;5013217;28;20135;-63
2022/08/24 10:26:08;;;;;;;7.35;5.30;;;26.80;99.90;;;;;;5013166;28;20559;-63
2022/08/24 10:28:58;;;;;;;5.50;4.28;;;26.80;99.90;;;;;;5013369;28;20120;-62
2022/08/24 10:31:47;;;;;;;8.25;4.22;;;26.80;99.90;;;;;;5013353;28;20046;-62
2022/08/24 10:34:30;;;;;;;5.75;5.10;;;26.90;99.90;;;;;;5013588;28;20096;-63
2022/08/24 10:37:13;;;;;;;6.07;4.43;;;27.10;99.90;;;;;;5013737;28;20053;-63
2022/08/24 10:40:07;;;;;;;4.70;4.20;;;27.10;99.90;;;;;;5013500;28;20383;-63
2022/08/24 10:46:04;;;;;;;4.13;3.63;;;27.30;99.90;;;;;;5015939;28;20433;-63
2022/08/24 10:48:30;;;;;;;4.28;3.78;;;27.30;99.90;;;;;;5016507;28;20041;-63
2022/08/24 10:51:06;;;;;;;5.45;4.20;;;27.40;99.90;;;;;;5017133;28;20374;-63
2022/08/24 10:53:32;;;;;;;4.65;4.10;;;27.40;99.90;;;;;;5015690;28;20054;-62
2022/08/24 10:56:14;;;;;;;6.78;4.80;;;27.20;99.90;;;;;;5016334;28;20045;-63
2022/08/24 10:58:51;;;;;;;5.43;3.72;;;27.00;99.90;;;;;;5016571;28;20045;-62
2022/08/24 11:01:35;;;;;;;4.93;4.43;;;26.80;99.90;;;;;;5015871;28;20104;-62
2022/08/24 11:04:05;;;;;;;5.05;4.35;;;26.70;99.90;;;;;;5016409;28;20100;-61
2022/08/24 11:06:35;;;;;;;3.90;3.50;;;26.60;99.90;;;;;;5016814;28;20045;-62
2022/08/24 11:09:11;;;;;;;6.05;3.75;;;26.50;99.90;;;;;;5016707;28;20120;-62
2022/08/24 11:11:43;;;;;;;6.40;3.70;;;26.50;99.90;;;;;;5016102;28;20116;-63
2022/08/24 11:14:15;;;;;;;5.63;4.20;;;26.50;99.90;;;;;;5014779;28;20074;-62
2022/08/24 11:16:44;;;;;;;6.07;3.78;;;26.40;99.90;;;;;;5016004;28;20105;-62
2022/08/24 11:19:13;;;;;;;5.38;3.00;;;26.30;99.90;;;;;;5015913;28;20385;-62
2022/08/24 11:21:46;;;;;;;3.83;3.33;;;26.30;99.90;;;;;;5014388;28;20099;-62
2022/08/24 11:24:29;;;;;;;5.13;3.38;;;26.30;99.90;;;;;;5015854;28;20133;-62
2022/08/24 11:27:26;;;;;;;6.13;3.28;;;26.30;99.90;;;;;;5016363;28;20080;-62
2022/08/24 11:29:51;;;;;;;4.38;3.00;;;26.30;99.90;;;;;;5015888;28;20170;-63
2022/08/24 11:32:49;;;;;;;4.47;3.03;;;26.20;99.90;;;;;;5015335;28;20128;-63
2022/08/24 11:35:23;;;;;;;3.55;2.70;;;26.30;99.90;;;;;;5005274;28;20452;-63
2022/08/24 11:37:51;;;;;;;2.75;2.50;;;26.50;99.90;;;;;;5015339;28;20125;-63
2022/08/24 11:40:20;;;;;;;3.42;2.78;;;26.60;99.90;;;;;;5016144;28;20385;-63
2022/08/24 11:43:17;;;;;;;2.67;2.45;;;26.80;99.90;;;;;;5015296;28;20459;-63
2022/08/24 11:46:19;;;;;;;5.60;3.03;;;27.00;99.90;;;;;;5015216;28;20045;-64
2022/08/24 11:48:50;;;;;;;3.03;2.60;;;27.20;99.90;;;;;;5015146;28;20092;-64
2022/08/24 11:51:45;;;;;;;4.13;2.47;;;27.40;99.90;;;;;;5015361;28;20467;-64
2022/08/24 11:54:18;;;;;;;3.53;2.08;;;27.50;99.90;;;;;;5006388;28;20112;-64
2022/08/24 11:57:05;;;;;;;2.95;2.35;;;27.60;99.90;;;;;;5015493;28;20138;-63
2022/08/24 11:59:37;;;;;;;3.15;1.90;;;27.60;99.90;;;;;;5014564;28;20053;-65
2022/08/24 12:02:20;;;;;;;4.53;2.00;;;27.50;99.90;;;;;;5015382;28;20050;-63
2022/08/24 12:05:05;;;;;;;3.03;1.35;;;27.60;99.90;;;;;;5014548;28;20049;-64
2022/08/24 12:08:05;;;;;;;3.25;1.30;;;27.80;99.90;;;;;;5015161;28;20061;-63
2022/08/24 12:10:54;;;;;;;2.00;1.20;;;28.10;99.90;;;;;;4944143;28;20094;-63
2022/08/24 12:13:38;;;;;;;1.70;1.20;;;28.30;99.90;;;;;;5014639;28;20046;-64
2022/08/24 12:16:16;;;;;;;2.05;1.55;;;28.30;99.90;;;;;;5014570;28;20038;-63
2022/08/24 12:18:49;;;;;;;2.85;1.08;;;28.40;99.90;;;;;;5014565;28;20049;-63
2022/08/24 12:21:18;;;;;;;1.77;0.98;;;28.30;99.90;;;;;;5014308;28;20042;-64
2022/08/24 12:23:51;;;;;;;1.67;1.00;;;28.20;99.90;;;;;;5014386;28;20049;-64
2022/08/24 12:26:41;;;;;;;1.60;1.10;;;28.10;99.90;;;;;;5013847;28;20056;-63
2022/08/24 12:29:10;;;;;;;2.58;1.05;;;28.00;99.90;;;;;;5014000;28;20061;-64
2022/08/24 12:32:08;;;;;;;1.55;1.00;;;28.10;99.90;;;;;;5013051;28;20438;-63
2022/08/24 12:34:39;;;;;;;1.92;1.10;;;28.20;99.90;;;;;;5015017;28;20088;-62
2022/08/24 12:37:35;;;;;;;2.00;1.27;;;28.30;99.90;;;;;;5013229;28;20485;-62
2022/08/24 12:40:28;;;;;;;2.95;1.50;;;28.40;99.90;;;;;;5014391;28;20056;-63
2022/08/24 12:43:08;;;;;;;2.40;1.45;;;28.50;99.90;;;;;;5003623;28;20053;-64
2022/08/24 12:45:35;;;;;;;2.10;1.30;;;28.50;99.90;;;;;;5013409;28;20100;-65
2022/08/24 12:48:04;;;;;;;2.00;1.20;;;28.60;99.90;;;;;;5014458;28;20371;-63
2022/08/24 12:50:50;;;;;;;1.40;0.90;;;28.60;99.90;;;;;;5012986;28;20054;-63
2022/08/24 12:53:18;;;;;;;;;;;28.60;99.90;;;;;;5014372;28;20050;-63
2022/08/24 12:56:16;;;;;;;1.67;1.02;;;28.50;99.90;;;;;;5013864;28;19922;-63
2022/08/24 12:58:44;;;;;;;2.03;0.82;;;28.40;99.90;;;;;;5014385;28;20045;-63
2022/08/24 13:01:13;;;;;;;2.00;1.35;;;28.40;99.90;;;;;;5013755;28;20137;-64
2022/08/24 13:03:42;;;;;;;2.33;1.00;;;28.50;99.90;;;;;;5013712;28;20126;-64
2022/08/24 13:06:23;;;;;;;1.83;1.15;;;28.40;99.90;;;;;;5013641;28;20037;-64
2022/08/24 13:08:50;;;;;;;2.17;1.33;;;28.40;99.90;;;;;;5013927;28;20046;-63